Terminal Aerodrome Forecast
Issued by NWS Knoxville/Tri Cities, TN

Home | Current Version | Previous Version | Text Only | Print | Product List | Glossary On
Versions: 1 2 3 4 5 6 7 8 9 10 11 12
000
FTUS44 KMRX 270522
TAFCHA
TAF
KCHA 270522Z 2706/2806 00000KT P6SM SCT030 SCT250
      TEMPO 2709/2712 5SM BR
     FM271300 19005KT P6SM SCT250
     FM280000 VRB03KT P6SM BKN250=

USA.gov is the U.S. government's official web portal to all federal, state and local government web resources and services.